sensor_id;sensor_type;location;lat;lon;timestamp;noise_LAeq;noise_LA_min;noise_LA_max;noise_LA01;noise_LA95
76100;Laerm;64828;49.956;8.636;2023-04-01T00:00:00;54.97;40.48;65.87;;
76100;Laerm;64828;49.956;8.636;2023-04-01T00:00:16;45.82;38.87;60.56;;
76100;Laerm;64828;49.956;8.636;2023-04-01T00:00:32;41.94;39.63;47.74;;
76100;Laerm;64828;49.956;8.636;2023-04-01T00:00:48;45.28;40.36;57.02;;
76100;Laerm;64828;49.956;8.636;2023-04-01T00:01:05;42.38;39.78;52.92;;
76100;Laerm;64828;49.956;8.636;2023-04-01T00:01:21;44.77;40.40;54.73;;
76100;Laerm;64828;49.956;8.636;2023-04-01T00:01:36;42.45;39.67;49.67;;
76100;Laerm;64828;49.956;8.636;2023-04-01T00:01:52;42.36;39.39;51.48;;
76100;Laerm;64828;49.956;8.636;2023-04-01T00:02:08;42.77;38.75;51.26;;
76100;Laerm;64828;49.956;8.636;2023-04-01T00:02:23;41.46;39.20;48.33;;
76100;Laerm;64828;49.956;8.636;2023-04-01T00:02:39;42.02;39.15;48.83;;
76100;Laerm;64828;49.956;8.636;2023-04-01T00:02:55;42.55;39.73;56.36;;
76100;Laerm;64828;49.956;8.636;2023-04-01T00:03:11;40.67;38.38;43.96;;
76100;Laerm;64828;49.956;8.636;2023-04-01T00:03:28;45.67;38.47;62.00;;
76100;Laerm;64828;49.956;8.636;2023-04-01T00:03:44;50.93;38.84;67.97;;
76100;Laerm;64828;49.956;8.636;2023-04-01T00:04:00;45.32;39.71;56.48;;
76100;Laerm;64828;49.956;8.636;2023-04-01T00:04:17;46.84;39.75;62.73;;
76100;Laerm;64828;49.956;8.636;2023-04-01T00:04:33;42.48;38.86;53.28;;
76100;Laerm;64828;49.956;8.636;2023-04-01T00:04:48;40.70;38.43;46.00;;
76100;Laerm;64828;49.956;8.636;2023-04-01T00:05:05;48.04;39.23;64.45;;
76100;Laerm;64828;49.956;8.636;2023-04-01T00:05:21;49.34;39.32;64.59;;
76100;Laerm;64828;49.956;8.636;2023-04-01T00:05:37;55.71;40.53;71.06;;
76100;Laerm;64828;49.956;8.636;2023-04-01T00:05:54;41.93;39.22;50.35;;
76100;Laerm;64828;49.956;8.636;2023-04-01T00:06:14;48.01;38.96;61.46;;
76100;Laerm;64828;49.956;8.636;2023-04-01T00:06:30;43.71;39.29;57.21;;
76100;Laerm;64828;49.956;8.636;2023-04-01T00:06:46;41.42;38.70;51.59;;
76100;Laerm;64828;49.956;8.636;2023-04-01T00:07:02;45.36;38.26;58.17;;
76100;Laerm;64828;49.956;8.636;2023-04-01T00:07:18;47.85;38.84;60.30;;
76100;Laerm;64828;49.956;8.636;2023-04-01T00:07:34;42.44;38.23;52.37;;
76100;Laerm;64828;49.956;8.636;2023-04-01T00:07:49;55.92;40.69;68.44;;
76100;Laerm;64828;49.956;8.636;2023-04-01T00:08:05;55.98;40.38;70.86;;
76100;Laerm;64828;49.956;8.636;2023-04-01T00:08:21;44.04;39.93;56.53;;
76100;Laerm;64828;49.956;8.636;2023-04-01T00:08:37;41.87;39.40;43.63;;
76100;Laerm;64828;49.956;8.636;2023-04-01T00:08:53;48.19;40.32;63.71;;
76100;Laerm;64828;49.956;8.636;2023-04-01T00:09:08;57.85;41.23;70.77;;
76100;Laerm;64828;49.956;8.636;2023-04-01T00:09:24;56.00;41.75;70.53;;
76100;Laerm;64828;49.956;8.636;2023-04-01T00:09:39;55.00;39.54;70.62;;
76100;Laerm;64828;49.956;8.636;2023-04-01T00:09:55;43.90;39.67;52.97;;
76100;Laerm;64828;49.956;8.636;2023-04-01T00:10:12;46.05;40.57;60.46;;
76100;Laerm;64828;49.956;8.636;2023-04-01T00:10:28;45.24;40.27;56.87;;
76100;Laerm;64828;49.956;8.636;2023-04-01T00:10:44;42.89;40.51;49.21;;
76100;Laerm;64828;49.956;8.636;2023-04-01T00:11:00;43.51;39.85;51.30;;
76100;Laerm;64828;49.956;8.636;2023-04-01T00:11:17;51.66;39.92;64.87;;
76100;Laerm;64828;49.956;8.636;2023-04-01T00:11:33;47.31;39.88;59.03;;
76100;Laerm;64828;49.956;8.636;2023-04-01T00:11:48;41.02;39.00;46.42;;
76100;Laerm;64828;49.956;8.636;2023-04-01T00:12:04;44.18;39.03;55.57;;
76100;Laerm;64828;49.956;8.636;2023-04-01T00:12:20;53.52;40.40;67.70;;
76100;Laerm;64828;49.956;8.636;2023-04-01T00:12:37;55.06;40.93;66.56;;
76100;Laerm;64828;49.956;8.636;2023-04-01T00:12:52;44.98;40.46;56.81;;
76100;Laerm;64828;49.956;8.636;2023-04-01T00:13:09;43.25;40.22;55.20;;
76100;Laerm;64828;49.956;8.636;2023-04-01T00:13:26;56.03;40.56;70.52;;
76100;Laerm;64828;49.956;8.636;2023-04-01T00:13:42;51.30;41.14;69.08;;
76100;Laerm;64828;49.956;8.636;2023-04-01T00:13:57;45.02;40.68;61.52;;
76100;Laerm;64828;49.956;8.636;2023-04-01T00:14:13;47.33;39.65;63.95;;
76100;Laerm;64828;49.956;8.636;2023-04-01T00:14:29;44.88;39.30;57.57;;
76100;Laerm;64828;49.956;8.636;2023-04-01T00:14:45;41.00;39.15;45.74;;
76100;Laerm;64828;49.956;8.636;2023-04-01T00:15:03;50.33;39.89;64.63;;
76100;Laerm;64828;49.956;8.636;2023-04-01T00:15:18;55.99;40.35;72.50;;
76100;Laerm;64828;49.956;8.636;2023-04-01T00:15:35;46.35;39.97;59.80;;
76100;Laerm;64828;49.956;8.636;2023-04-01T00:15:51;41.56;39.21;50.23;;
76100;Laerm;64828;49.956;8.636;2023-04-01T00:16:08;42.62;38.54;52.39;;
76100;Laerm;64828;49.956;8.636;2023-04-01T00:16:24;42.02;38.85;55.68;;
76100;Laerm;64828;49.956;8.636;2023-04-01T00:16:39;46.22;39.15;58.67;;
76100;Laerm;64828;49.956;8.636;2023-04-01T00:16:55;46.08;39.89;60.72;;
76100;Laerm;64828;49.956;8.636;2023-04-01T00:17:12;41.81;39.39;49.78;;
76100;Laerm;64828;49.956;8.636;2023-04-01T00:17:27;45.54;39.44;60.85;;
76100;Laerm;64828;49.956;8.636;2023-04-01T00:17:43;50.32;39.19;63.82;;
76100;Laerm;64828;49.956;8.636;2023-04-01T00:17:59;42.79;38.86;54.25;;
76100;Laerm;64828;49.956;8.636;2023-04-01T00:18:15;52.82;39.68;69.57;;
76100;Laerm;64828;49.956;8.636;2023-04-01T00:18:30;49.53;39.54;64.62;;
76100;Laerm;64828;49.956;8.636;2023-04-01T00:18:47;45.09;39.25;58.59;;
76100;Laerm;64828;49.956;8.636;2023-04-01T00:19:02;46.15;38.73;63.73;;
76100;Laerm;64828;49.956;8.636;2023-04-01T00:19:18;42.13;38.94;52.03;;
76100;Laerm;64828;49.956;8.636;2023-04-01T00:19:34;42.49;39.09;51.87;;
76100;Laerm;64828;49.956;8.636;2023-04-01T00:19:50;53.85;39.68;74.25;;
76100;Laerm;64828;49.956;8.636;2023-04-01T00:20:07;60.80;42.77;76.85;;
76100;Laerm;64828;49.956;8.636;2023-04-01T00:20:24;51.98;40.84;66.14;;
76100;Laerm;64828;49.956;8.636;2023-04-01T00:20:48;45.41;39.84;60.60;;
76100;Laerm;64828;49.956;8.636;2023-04-01T00:21:04;41.63;39.48;45.61;;
76100;Laerm;64828;49.956;8.636;2023-04-01T00:21:20;42.78;39.66;52.43;;
76100;Laerm;64828;49.956;8.636;2023-04-01T00:21:37;48.89;39.57;60.03;;
76100;Laerm;64828;49.956;8.636;2023-04-01T00:21:53;44.10;39.97;54.12;;
76100;Laerm;64828;49.956;8.636;2023-04-01T00:22:08;41.55;39.09;50.74;;
76100;Laerm;64828;49.956;8.636;2023-04-01T00:22:26;42.01;38.78;47.64;;
76100;Laerm;64828;49.956;8.636;2023-04-01T00:22:42;52.61;39.28;66.10;;
76100;Laerm;64828;49.956;8.636;2023-04-01T00:22:58;45.78;39.78;59.77;;
76100;Laerm;64828;49.956;8.636;2023-04-01T00:23:15;42.40;39.72;51.73;;
76100;Laerm;64828;49.956;8.636;2023-04-01T00:23:31;43.25;39.40;55.73;;
76100;Laerm;64828;49.956;8.636;2023-04-01T00:23:47;43.79;39.34;56.59;;
76100;Laerm;64828;49.956;8.636;2023-04-01T00:24:03;52.33;40.49;66.71;;
76100;Laerm;64828;49.956;8.636;2023-04-01T00:24:19;41.37;39.12;46.91;;
76100;Laerm;64828;49.956;8.636;2023-04-01T00:24:34;46.16;39.37;60.07;;
76100;Laerm;64828;49.956;8.636;2023-04-01T00:24:50;49.14;41.87;62.40;;
76100;Laerm;64828;49.956;8.636;2023-04-01T00:25:06;49.33;40.10;65.35;;
76100;Laerm;64828;49.956;8.636;2023-04-01T00:25:23;53.32;40.70;71.22;;
76100;Laerm;64828;49.956;8.636;2023-04-01T00:25:39;43.02;40.48;49.70;;
76100;Laerm;64828;49.956;8.636;2023-04-01T00:25:54;41.66;39.35;47.18;;
76100;Laerm;64828;49.956;8.636;2023-04-01T00:26:10;41.96;39.43;52.54;;
76100;Laerm;64828;49.956;8.636;2023-04-01T00:26:27;42.37;39.76;51.58;;
76100;Laerm;64828;49.956;8.636;2023-04-01T00:26:43;47.32;39.62;59.50;;
76100;Laerm;64828;49.956;8.636;2023-04-01T00:26:59;49.57;40.19;61.34;;
76100;Laerm;64828;49.956;8.636;2023-04-01T00:27:16;42.59;39.12;52.92;;
76100;Laerm;64828;49.956;8.636;2023-04-01T00:27:32;49.89;38.90;64.11;;
76100;Laerm;64828;49.956;8.636;2023-04-01T00:27:47;46.09;38.50;60.83;;
76100;Laerm;64828;49.956;8.636;2023-04-01T00:28:04;54.58;40.21;65.98;;
76100;Laerm;64828;49.956;8.636;2023-04-01T00:28:20;49.39;39.28;63.40;;
76100;Laerm;64828;49.956;8.636;2023-04-01T00:28:36;54.61;38.62;70.86;;
76100;Laerm;64828;49.956;8.636;2023-04-01T00:28:52;54.72;39.61;68.07;;
76100;Laerm;64828;49.956;8.636;2023-04-01T00:29:08;48.42;39.18;65.11;;
76100;Laerm;64828;49.956;8.636;2023-04-01T00:29:24;57.53;40.00;73.20;;
76100;Laerm;64828;49.956;8.636;2023-04-01T00:29:45;51.44;38.40;65.66;;
76100;Laerm;64828;49.956;8.636;2023-04-01T00:30:02;49.88;38.63;64.87;;
76100;Laerm;64828;49.956;8.636;2023-04-01T00:30:18;50.50;38.16;64.11;;
76100;Laerm;64828;49.956;8.636;2023-04-01T00:30:36;52.44;38.87;72.45;;
76100;Laerm;64828;49.956;8.636;2023-04-01T00:30:52;52.70;39.29;70.31;;
76100;Laerm;64828;49.956;8.636;2023-04-01T00:31:10;54.24;39.00;70.62;;
76100;Laerm;64828;49.956;8.636;2023-04-01T00:31:26;41.67;37.77;51.90;;
76100;Laerm;64828;49.956;8.636;2023-04-01T00:31:42;41.91;39.21;53.61;;
76100;Laerm;64828;49.956;8.636;2023-04-01T00:31:57;54.22;39.66;67.59;;
76100;Laerm;64828;49.956;8.636;2023-04-01T00:32:14;48.43;38.63;61.05;;
76100;Laerm;64828;49.956;8.636;2023-04-01T00:32:29;54.86;39.92;69.83;;
76100;Laerm;64828;49.956;8.636;2023-04-01T00:32:46;45.34;39.18;55.04;;
76100;Laerm;64828;49.956;8.636;2023-04-01T00:33:02;42.97;39.30;61.10;;
76100;Laerm;64828;49.956;8.636;2023-04-01T00:33:17;60.28;40.04;73.28;;
76100;Laerm;64828;49.956;8.636;2023-04-01T00:33:33;59.30;40.44;75.45;;
76100;Laerm;64828;49.956;8.636;2023-04-01T00:33:49;47.81;39.37;63.78;;
76100;Laerm;64828;49.956;8.636;2023-04-01T00:34:04;55.14;40.57;67.23;;
76100;Laerm;64828;49.956;8.636;2023-04-01T00:34:20;51.17;39.40;65.70;;
76100;Laerm;64828;49.956;8.636;2023-04-01T00:34:36;47.38;39.80;62.29;;
76100;Laerm;64828;49.956;8.636;2023-04-01T00:34:53;45.38;40.12;59.47;;
76100;Laerm;64828;49.956;8.636;2023-04-01T00:35:09;41.42;39.32;47.18;;
76100;Laerm;64828;49.956;8.636;2023-04-01T00:35:25;43.85;39.77;56.23;;
76100;Laerm;64828;49.956;8.636;2023-04-01T00:35:41;44.38;39.55;56.14;;
76100;Laerm;64828;49.956;8.636;2023-04-01T00:36:14;52.30;39.45;66.45;;
76100;Laerm;64828;49.956;8.636;2023-04-01T00:36:30;43.46;39.38;54.39;;
76100;Laerm;64828;49.956;8.636;2023-04-01T00:36:45;57.12;39.31;71.19;;
76100;Laerm;64828;49.956;8.636;2023-04-01T00:37:01;56.26;38.48;69.62;;
76100;Laerm;64828;49.956;8.636;2023-04-01T00:37:17;52.67;39.98;68.33;;
76100;Laerm;64828;49.956;8.636;2023-04-01T00:37:36;44.80;38.25;59.78;;
76100;Laerm;64828;49.956;8.636;2023-04-01T00:37:52;42.52;37.92;58.49;;
76100;Laerm;64828;49.956;8.636;2023-04-01T00:38:07;56.46;37.79;69.33;;
76100;Laerm;64828;49.956;8.636;2023-04-01T00:38:23;41.62;39.29;48.90;;
76100;Laerm;64828;49.956;8.636;2023-04-01T00:38:39;42.64;39.05;52.03;;
76100;Laerm;64828;49.956;8.636;2023-04-01T00:38:58;53.53;39.36;71.93;;
76100;Laerm;64828;49.956;8.636;2023-04-01T00:39:14;54.07;39.92;66.91;;
76100;Laerm;64828;49.956;8.636;2023-04-01T00:39:31;51.26;40.46;64.20;;
76100;Laerm;64828;49.956;8.636;2023-04-01T00:39:48;50.75;39.31;64.08;;
76100;Laerm;64828;49.956;8.636;2023-04-01T00:40:06;43.49;38.97;52.35;;
76100;Laerm;64828;49.956;8.636;2023-04-01T00:40:30;54.46;40.80;70.39;;
76100;Laerm;64828;49.956;8.636;2023-04-01T00:40:47;50.65;40.32;67.38;;
76100;Laerm;64828;49.956;8.636;2023-04-01T00:41:03;53.95;39.55;71.24;;
76100;Laerm;64828;49.956;8.636;2023-04-01T00:41:20;49.45;39.66;62.56;;
76100;Laerm;64828;49.956;8.636;2023-04-01T00:41:36;51.13;41.15;65.99;;
76100;Laerm;64828;49.956;8.636;2023-04-01T00:41:52;49.03;40.96;60.98;;
76100;Laerm;64828;49.956;8.636;2023-04-01T00:42:09;52.73;40.21;70.94;;
76100;Laerm;64828;49.956;8.636;2023-04-01T00:42:26;61.97;41.64;79.42;;
76100;Laerm;64828;49.956;8.636;2023-04-01T00:42:41;51.08;40.25;68.92;;
76100;Laerm;64828;49.956;8.636;2023-04-01T00:42:57;52.02;40.47;65.88;;
76100;Laerm;64828;49.956;8.636;2023-04-01T00:43:17;50.59;39.99;62.92;;
76100;Laerm;64828;49.956;8.636;2023-04-01T00:43:34;47.18;39.09;59.73;;
76100;Laerm;64828;49.956;8.636;2023-04-01T00:43:52;59.14;40.98;75.41;;
76100;Laerm;64828;49.956;8.636;2023-04-01T00:44:38;41.90;39.14;47.54;;
76100;Laerm;64828;49.956;8.636;2023-04-01T00:44:55;42.40;38.64;51.97;;
76100;Laerm;64828;49.956;8.636;2023-04-01T00:45:37;51.70;39.30;68.78;;
76100;Laerm;64828;49.956;8.636;2023-04-01T00:45:53;48.83;39.17;63.97;;
76100;Laerm;64828;49.956;8.636;2023-04-01T00:46:09;53.09;39.11;66.95;;
76100;Laerm;64828;49.956;8.636;2023-04-01T00:46:24;45.07;39.10;58.14;;
76100;Laerm;64828;49.956;8.636;2023-04-01T00:46:40;51.48;38.70;69.44;;
76100;Laerm;64828;49.956;8.636;2023-04-01T00:46:56;43.56;38.25;56.79;;
76100;Laerm;64828;49.956;8.636;2023-04-01T00:47:12;56.72;38.54;72.35;;
76100;Laerm;64828;49.956;8.636;2023-04-01T00:47:27;48.51;38.70;59.80;;
76100;Laerm;64828;49.956;8.636;2023-04-01T00:47:43;54.63;39.04;70.13;;
76100;Laerm;64828;49.956;8.636;2023-04-01T00:48:25;42.44;39.05;56.66;;
76100;Laerm;64828;49.956;8.636;2023-04-01T00:48:53;46.26;38.15;63.94;;
76100;Laerm;64828;49.956;8.636;2023-04-01T00:49:10;43.13;38.37;54.77;;
76100;Laerm;64828;49.956;8.636;2023-04-01T00:49:43;40.81;38.55;46.70;;
76100;Laerm;64828;49.956;8.636;2023-04-01T00:49:59;41.06;38.50;47.70;;
76100;Laerm;64828;49.956;8.636;2023-04-01T00:50:15;50.99;39.40;65.72;;
76100;Laerm;64828;49.956;8.636;2023-04-01T00:50:33;47.75;39.51;64.36;;
76100;Laerm;64828;49.956;8.636;2023-04-01T00:51:05;60.21;39.80;77.48;;
76100;Laerm;64828;49.956;8.636;2023-04-01T00:51:25;46.50;39.34;59.94;;
76100;Laerm;64828;49.956;8.636;2023-04-01T00:51:45;41.94;38.52;53.51;;
76100;Laerm;64828;49.956;8.636;2023-04-01T00:52:06;45.48;38.34;60.87;;
76100;Laerm;64828;49.956;8.636;2023-04-01T00:52:25;44.47;38.48;60.48;;
76100;Laerm;64828;49.956;8.636;2023-04-01T00:52:41;43.43;39.04;53.68;;
76100;Laerm;64828;49.956;8.636;2023-04-01T00:53:00;49.83;39.01;65.63;;
76100;Laerm;64828;49.956;8.636;2023-04-01T00:53:19;44.25;38.87;62.59;;
76100;Laerm;64828;49.956;8.636;2023-04-01T00:53:41;54.19;38.89;67.75;;
76100;Laerm;64828;49.956;8.636;2023-04-01T00:54:00;58.14;41.48;69.89;;
76100;Laerm;64828;49.956;8.636;2023-04-01T00:54:21;55.78;39.13;68.84;;
76100;Laerm;64828;49.956;8.636;2023-04-01T00:54:39;51.57;40.07;62.53;;
76100;Laerm;64828;49.956;8.636;2023-04-01T00:55:01;62.60;39.35;79.51;;
76100;Laerm;64828;49.956;8.636;2023-04-01T00:55:21;52.12;40.20;64.97;;
76100;Laerm;64828;49.956;8.636;2023-04-01T00:55:45;58.53;40.38;72.51;;
76100;Laerm;64828;49.956;8.636;2023-04-01T00:56:10;51.77;40.38;69.69;;
76100;Laerm;64828;49.956;8.636;2023-04-01T00:56:41;55.74;40.70;74.48;;
76100;Laerm;64828;49.956;8.636;2023-04-01T00:57:13;67.68;41.07;89.13;;
76100;Laerm;64828;49.956;8.636;2023-04-01T00:57:35;52.98;39.69;69.43;;
76100;Laerm;64828;49.956;8.636;2023-04-01T00:57:54;56.28;39.99;69.89;;
76100;Laerm;64828;49.956;8.636;2023-04-01T00:58:17;47.42;39.25;65.01;;
76100;Laerm;64828;49.956;8.636;2023-04-01T00:58:38;46.57;40.24;64.97;;
76100;Laerm;64828;49.956;8.636;2023-04-01T00:59:06;44.27;39.54;56.90;;
76100;Laerm;64828;49.956;8.636;2023-04-01T00:59:32;46.27;39.53;58.26;;
76100;Laerm;64828;49.956;8.636;2023-04-01T00:59:53;49.41;40.37;63.46;;
76100;Laerm;64828;49.956;8.636;2023-04-01T01:00:12;49.65;40.13;62.67;;
76100;Laerm;64828;49.956;8.636;2023-04-01T01:00:30;47.49;40.66;58.29;;
76100;Laerm;64828;49.956;8.636;2023-04-01T01:00:48;55.56;41.36;66.82;;
76100;Laerm;64828;49.956;8.636;2023-04-01T01:01:08;54.58;41.32;65.81;;
76100;Laerm;64828;49.956;8.636;2023-04-01T01:01:25;55.12;40.90;70.51;;
76100;Laerm;64828;49.956;8.636;2023-04-01T01:01:42;52.63;42.05;70.43;;
76100;Laerm;64828;49.956;8.636;2023-04-01T01:01:57;45.36;41.15;56.85;;
76100;Laerm;64828;49.956;8.636;2023-04-01T01:02:15;48.48;42.99;61.19;;
76100;Laerm;64828;49.956;8.636;2023-04-01T01:02:33;50.53;44.75;60.05;;
76100;Laerm;64828;49.956;8.636;2023-04-01T01:02:50;58.85;46.98;71.56;;
76100;Laerm;64828;49.956;8.636;2023-04-01T01:03:06;63.25;53.29;72.74;;
76100;Laerm;64828;49.956;8.636;2023-04-01T01:03:22;55.63;50.11;63.86;;
76100;Laerm;64828;49.956;8.636;2023-04-01T01:03:38;53.12;42.79;59.93;;
76100;Laerm;64828;49.956;8.636;2023-04-01T01:03:54;51.30;40.49;61.57;;
76100;Laerm;64828;49.956;8.636;2023-04-01T01:04:30;42.79;39.08;53.53;;
76100;Laerm;64828;49.956;8.636;2023-04-01T01:04:46;54.12;39.59;71.99;;
76100;Laerm;64828;49.956;8.636;2023-04-01T01:05:02;55.77;39.45;69.93;;
76100;Laerm;64828;49.956;8.636;2023-04-01T01:05:30;46.93;39.12;63.84;;
76100;Laerm;64828;49.956;8.636;2023-04-01T01:06:24;45.99;38.50;59.46;;
76100;Laerm;64828;49.956;8.636;2023-04-01T01:07:20;52.74;37.42;71.86;;
76100;Laerm;64828;49.956;8.636;2023-04-01T01:07:53;51.23;38.27;69.40;;
76100;Laerm;64828;49.956;8.636;2023-04-01T01:09:02;42.79;38.54;53.58;;
76100;Laerm;64828;49.956;8.636;2023-04-01T01:09:41;53.63;38.52;73.46;;
76100;Laerm;64828;49.956;8.636;2023-04-01T01:10:35;52.15;38.84;72.50;;
76100;Laerm;64828;49.956;8.636;2023-04-01T01:10:53;47.76;38.34;61.76;;
76100;Laerm;64828;49.956;8.636;2023-04-01T01:11:10;50.98;38.94;62.92;;
76100;Laerm;64828;49.956;8.636;2023-04-01T01:11:47;43.77;37.58;56.50;;
76100;Laerm;64828;49.956;8.636;2023-04-01T01:12:16;51.23;38.85;67.58;;
76100;Laerm;64828;49.956;8.636;2023-04-01T01:13:04;56.08;38.00;73.91;;
76100;Laerm;64828;49.956;8.636;2023-04-01T01:13:36;46.66;38.22;62.95;;
76100;Laerm;64828;49.956;8.636;2023-04-01T01:14:09;45.84;37.82;61.99;;
76100;Laerm;64828;49.956;8.636;2023-04-01T01:14:33;43.51;37.58;54.76;;
76100;Laerm;64828;49.956;8.636;2023-04-01T01:15:07;40.12;37.86;53.30;;
76100;Laerm;64828;49.956;8.636;2023-04-01T01:15:47;42.64;38.28;60.57;;
76100;Laerm;64828;49.956;8.636;2023-04-01T01:16:16;50.67;38.68;68.38;;
76100;Laerm;64828;49.956;8.636;2023-04-01T01:16:44;47.03;38.48;62.57;;
76100;Laerm;64828;49.956;8.636;2023-04-01T01:17:39;42.70;36.20;61.13;;
76100;Laerm;64828;49.956;8.636;2023-04-01T01:18:18;45.82;37.01;60.69;;
76100;Laerm;64828;49.956;8.636;2023-04-01T01:18:58;46.21;37.57;59.70;;
76100;Laerm;64828;49.956;8.636;2023-04-01T01:19:56;49.22;37.17;65.90;;
76100;Laerm;64828;49.956;8.636;2023-04-01T01:21:01;42.02;37.10;57.10;;
76100;Laerm;64828;49.956;8.636;2023-04-01T01:21:54;58.37;38.82;81.33;;
76100;Laerm;64828;49.956;8.636;2023-04-01T01:22:57;50.33;37.56;73.37;;
76100;Laerm;64828;49.956;8.636;2023-04-01T01:24:50;52.48;38.43;69.36;;
76100;Laerm;64828;49.956;8.636;2023-04-01T01:25:32;54.02;38.29;68.16;;
76100;Laerm;64828;49.956;8.636;2023-04-01T01:27:21;49.99;37.51;63.98;;
76100;Laerm;64828;49.956;8.636;2023-04-01T01:27:41;54.74;38.48;68.43;;
76100;Laerm;64828;49.956;8.636;2023-04-01T01:29:32;50.47;38.32;71.50;;
76100;Laerm;64828;49.956;8.636;2023-04-01T01:30:52;48.48;38.21;65.39;;
76100;Laerm;64828;49.956;8.636;2023-04-01T01:31:20;44.09;38.81;55.23;;
76100;Laerm;64828;49.956;8.636;2023-04-01T01:32:06;49.77;37.93;66.79;;
76100;Laerm;64828;49.956;8.636;2023-04-01T01:32:54;48.68;37.60;67.17;;
76100;Laerm;64828;49.956;8.636;2023-04-01T01:33:58;46.60;38.30;66.61;;
76100;Laerm;64828;49.956;8.636;2023-04-01T01:34:22;40.48;36.77;54.16;;
76100;Laerm;64828;49.956;8.636;2023-04-01T01:36:09;43.08;37.04;59.80;;
76100;Laerm;64828;49.956;8.636;2023-04-01T01:36:32;45.40;37.15;61.93;;
76100;Laerm;64828;49.956;8.636;2023-04-01T01:36:57;46.31;38.08;66.70;;
76100;Laerm;64828;49.956;8.636;2023-04-01T01:37:18;46.93;38.47;57.46;;
76100;Laerm;64828;49.956;8.636;2023-04-01T01:37:38;41.94;37.98;55.03;;
76100;Laerm;64828;49.956;8.636;2023-04-01T01:38:07;43.11;37.99;54.28;;
76100;Laerm;64828;49.956;8.636;2023-04-01T01:38:31;39.54;37.41;41.57;;
76100;Laerm;64828;49.956;8.636;2023-04-01T01:38:50;43.95;37.30;57.49;;
76100;Laerm;64828;49.956;8.636;2023-04-01T01:39:08;45.43;38.43;58.46;;
76100;Laerm;64828;49.956;8.636;2023-04-01T01:39:30;51.60;38.55;68.59;;
76100;Laerm;64828;49.956;8.636;2023-04-01T01:39:55;47.39;38.66;64.02;;
76100;Laerm;64828;49.956;8.636;2023-04-01T01:40:13;52.00;39.15;66.71;;
76100;Laerm;64828;49.956;8.636;2023-04-01T01:40:32;59.05;38.40;75.33;;
76100;Laerm;64828;49.956;8.636;2023-04-01T01:40:51;49.43;37.91;65.53;;
76100;Laerm;64828;49.956;8.636;2023-04-01T01:41:11;42.49;36.94;59.47;;
76100;Laerm;64828;49.956;8.636;2023-04-01T01:41:31;42.22;37.25;54.06;;
76100;Laerm;64828;49.956;8.636;2023-04-01T01:41:49;48.57;38.41;63.67;;
76100;Laerm;64828;49.956;8.636;2023-04-01T01:42:09;43.79;36.98;61.65;;
76100;Laerm;64828;49.956;8.636;2023-04-01T01:42:29;53.78;38.18;72.09;;
76100;Laerm;64828;49.956;8.636;2023-04-01T01:42:51;53.31;37.40;67.91;;
76100;Laerm;64828;49.956;8.636;2023-04-01T01:43:14;50.04;37.27;68.32;;
76100;Laerm;64828;49.956;8.636;2023-04-01T01:43:40;43.61;37.20;60.30;;
76100;Laerm;64828;49.956;8.636;2023-04-01T01:43:59;45.80;38.11;58.57;;
76100;Laerm;64828;49.956;8.636;2023-04-01T01:44:18;43.42;37.89;53.50;;
76100;Laerm;64828;49.956;8.636;2023-04-01T01:44:36;39.88;37.71;47.15;;
76100;Laerm;64828;49.956;8.636;2023-04-01T01:44:56;48.47;37.90;66.19;;
76100;Laerm;64828;49.956;8.636;2023-04-01T01:45:19;46.98;37.81;62.56;;
76100;Laerm;64828;49.956;8.636;2023-04-01T01:45:42;44.31;37.67;57.78;;
76100;Laerm;64828;49.956;8.636;2023-04-01T01:46:06;41.83;36.15;57.03;;
76100;Laerm;64828;49.956;8.636;2023-04-01T01:46:26;38.88;36.17;51.38;;
76100;Laerm;64828;49.956;8.636;2023-04-01T01:46:45;41.70;36.48;53.89;;
76100;Laerm;64828;49.956;8.636;2023-04-01T01:47:01;40.38;36.21;50.76;;
76100;Laerm;64828;49.956;8.636;2023-04-01T01:47:19;42.45;37.37;54.62;;
76100;Laerm;64828;49.956;8.636;2023-04-01T01:47:37;38.87;36.64;45.59;;
76100;Laerm;64828;49.956;8.636;2023-04-01T01:47:55;38.71;36.69;44.98;;
76100;Laerm;64828;49.956;8.636;2023-04-01T01:48:12;47.69;37.12;61.92;;
76100;Laerm;64828;49.956;8.636;2023-04-01T01:48:29;45.61;36.79;60.40;;
76100;Laerm;64828;49.956;8.636;2023-04-01T01:48:47;51.81;36.71;64.65;;
76100;Laerm;64828;49.956;8.636;2023-04-01T01:49:04;43.88;37.12;62.05;;
76100;Laerm;64828;49.956;8.636;2023-04-01T01:49:23;41.29;37.60;51.74;;
76100;Laerm;64828;49.956;8.636;2023-04-01T01:49:42;41.81;38.38;52.42;;
76100;Laerm;64828;49.956;8.636;2023-04-01T01:49:59;40.04;37.73;45.67;;
76100;Laerm;64828;49.956;8.636;2023-04-01T01:50:17;41.00;38.02;52.64;;
76100;Laerm;64828;49.956;8.636;2023-04-01T01:50:35;49.96;37.73;65.92;;
76100;Laerm;64828;49.956;8.636;2023-04-01T01:50:52;39.53;36.98;47.66;;
76100;Laerm;64828;49.956;8.636;2023-04-01T01:51:09;40.03;37.20;54.84;;
76100;Laerm;64828;49.956;8.636;2023-04-01T01:51:27;42.78;38.25;56.92;;
76100;Laerm;64828;49.956;8.636;2023-04-01T01:51:43;42.53;38.70;54.56;;
76100;Laerm;64828;49.956;8.636;2023-04-01T01:51:58;53.82;38.68;66.83;;
76100;Laerm;64828;49.956;8.636;2023-04-01T01:52:17;49.63;38.11;66.41;;
76100;Laerm;64828;49.956;8.636;2023-04-01T01:52:33;39.95;37.97;47.49;;
76100;Laerm;64828;49.956;8.636;2023-04-01T01:52:48;40.73;38.27;50.44;;
76100;Laerm;64828;49.956;8.636;2023-04-01T01:53:09;40.67;37.27;49.76;;
76100;Laerm;64828;49.956;8.636;2023-04-01T01:53:25;46.46;37.86;61.19;;
76100;Laerm;64828;49.956;8.636;2023-04-01T01:53:41;42.63;38.75;54.17;;
76100;Laerm;64828;49.956;8.636;2023-04-01T01:53:57;47.80;38.78;63.95;;
76100;Laerm;64828;49.956;8.636;2023-04-01T01:54:15;58.41;38.36;74.05;;
76100;Laerm;64828;49.956;8.636;2023-04-01T01:54:31;62.83;40.16;74.99;;
76100;Laerm;64828;49.956;8.636;2023-04-01T01:54:55;51.67;38.86;62.91;;
76100;Laerm;64828;49.956;8.636;2023-04-01T01:55:47;46.73;38.10;66.78;;
76100;Laerm;64828;49.956;8.636;2023-04-01T01:56:04;55.60;38.93;69.35;;
76100;Laerm;64828;49.956;8.636;2023-04-01T01:56:23;48.37;37.86;65.95;;
76100;Laerm;64828;49.956;8.636;2023-04-01T01:56:46;48.55;38.03;61.16;;
76100;Laerm;64828;49.956;8.636;2023-04-01T01:57:08;44.67;37.30;56.10;;
76100;Laerm;64828;49.956;8.636;2023-04-01T01:57:36;40.03;37.11;47.98;;
76100;Laerm;64828;49.956;8.636;2023-04-01T01:57:56;39.58;37.32;47.90;;
76100;Laerm;64828;49.956;8.636;2023-04-01T01:58:42;43.72;37.47;56.91;;
76100;Laerm;64828;49.956;8.636;2023-04-01T01:59:05;44.75;36.99;58.97;;
76100;Laerm;64828;49.956;8.636;2023-04-01T01:59:25;40.02;36.95;50.23;;
76100;Laerm;64828;49.956;8.636;2023-04-01T01:59:43;39.02;36.67;46.66;;
76100;Laerm;64828;49.956;8.636;2023-04-01T02:00:09;39.02;36.81;46.11;;
76100;Laerm;64828;49.956;8.636;2023-04-01T02:00:29;53.07;37.51;71.07;;
76100;Laerm;64828;49.956;8.636;2023-04-01T02:00:59;42.49;37.17;53.49;;
76100;Laerm;64828;49.956;8.636;2023-04-01T02:01:31;39.72;37.18;51.67;;
76100;Laerm;64828;49.956;8.636;2023-04-01T02:01:53;51.90;38.25;65.64;;
76100;Laerm;64828;49.956;8.636;2023-04-01T02:02:13;50.73;38.30;65.59;;
76100;Laerm;64828;49.956;8.636;2023-04-01T02:02:30;52.28;38.05;67.25;;
76100;Laerm;64828;49.956;8.636;2023-04-01T02:02:49;46.38;38.02;61.53;;